createdAt,value
2022-08-19T04:00:31.402Z,19.61
2022-08-19T04:05:31.317Z,19.78
2022-08-19T04:10:31.300Z,19.81
2022-08-19T04:15:38.265Z,19.84
2022-08-19T04:20:31.158Z,19.81
2022-08-19T04:25:31.114Z,19.71
2022-08-19T04:30:31.069Z,19.56
2022-08-19T04:35:30.996Z,19.57
2022-08-19T04:40:30.955Z,19.64
2022-08-19T04:45:36.274Z,19.61
2022-08-19T04:50:31.855Z,19.71
2022-08-19T04:55:31.470Z,19.80
2022-08-19T05:00:30.744Z,19.91
2022-08-19T05:05:30.697Z,20.04
2022-08-19T05:10:31.643Z,20.31
2022-08-19T05:15:30.564Z,20.55
2022-08-19T05:20:30.527Z,20.72
2022-08-19T05:25:30.486Z,20.92
2022-08-19T05:30:46.372Z,20.99
2022-08-19T05:35:34.795Z,21.07
2022-08-19T05:40:30.302Z,21.20
2022-08-19T05:45:30.257Z,21.56
2022-08-19T05:50:30.218Z,21.71
2022-08-19T05:55:30.135Z,21.91
2022-08-19T06:00:30.099Z,22.55
2022-08-19T06:05:30.043Z,22.59
2022-08-19T06:10:29.990Z,22.68
2022-08-19T06:15:29.917Z,22.55
2022-08-19T06:20:54.446Z,23.02
2022-08-19T06:25:30.827Z,23.47
2022-08-19T06:30:29.756Z,23.48
2022-08-19T06:35:29.710Z,23.85
2022-08-19T06:40:29.676Z,23.98
2022-08-19T06:45:34.553Z,23.96
2022-08-19T06:50:30.559Z,24.41
2022-08-19T06:55:29.502Z,24.08
2022-08-19T07:05:29.383Z,24.16
2022-08-19T07:10:29.345Z,24.32
2022-08-19T07:15:29.285Z,25.00
2022-08-19T07:20:29.597Z,25.17
2022-08-19T07:25:32.280Z,24.66
2022-08-19T07:30:29.127Z,24.39
2022-08-19T07:35:29.066Z,24.30
2022-08-19T07:40:29.018Z,24.36
2022-08-19T07:45:28.977Z,24.17
2022-08-19T07:50:28.902Z,24.29
2022-08-19T07:55:41.080Z,25.04
2022-08-19T08:00:29.802Z,25.44
2022-08-19T08:05:28.739Z,25.15
2022-08-19T08:10:28.809Z,25.19
2022-08-19T08:15:28.652Z,25.03
2022-08-19T08:20:28.577Z,25.35
2022-08-19T08:25:28.535Z,25.15
2022-08-19T08:30:31.077Z,25.29
2022-08-19T08:35:28.415Z,26.16
2022-08-19T08:40:28.379Z,27.06
2022-08-19T08:45:28.338Z,28.75
2022-08-19T08:50:28.263Z,28.88
2022-08-19T08:55:28.228Z,29.87
2022-08-19T09:00:29.168Z,30.19
2022-08-19T09:05:28.096Z,29.50
2022-08-19T09:10:29.058Z,29.16
2022-08-19T09:15:33.333Z,28.95
2022-08-19T09:20:28.963Z,29.15
2022-08-19T09:25:29.557Z,30.61
2022-08-19T09:30:27.848Z,29.75
2022-08-19T09:35:28.300Z,29.51
2022-08-19T09:40:27.790Z,28.77
2022-08-19T09:45:27.697Z,27.72
2022-08-19T09:50:27.639Z,29.26
2022-08-19T09:55:31.622Z,28.38
2022-08-19T10:00:28.540Z,28.11
2022-08-19T10:05:27.489Z,28.11
2022-08-19T10:10:27.447Z,27.67
2022-08-19T10:15:29.178Z,27.66
2022-08-19T10:20:34.650Z,28.03
2022-08-19T10:25:27.282Z,28.36
2022-08-19T10:30:27.240Z,29.16
2022-08-19T10:35:27.161Z,28.19
2022-08-19T10:40:27.229Z,28.34
2022-08-19T10:45:28.130Z,28.65
2022-08-19T10:50:28.441Z,27.54
2022-08-19T10:55:29.269Z,27.02
2022-08-19T11:00:26.926Z,28.00
2022-08-19T11:05:26.853Z,29.55
2022-08-19T11:10:26.805Z,29.95
2022-08-19T11:15:26.765Z,30.10
2022-08-19T11:20:26.688Z,28.82
2022-08-19T11:25:26.654Z,29.41
2022-08-19T11:30:26.610Z,29.77
2022-08-19T11:35:26.535Z,29.19
2022-08-19T11:40:26.494Z,29.23
2022-08-19T11:45:26.441Z,27.68
2022-08-19T11:50:26.378Z,28.33
2022-08-19T11:55:26.340Z,28.49
2022-08-19T12:00:26.286Z,28.93
2022-08-19T12:05:26.219Z,29.18
2022-08-19T12:10:26.617Z,28.76
2022-08-19T12:15:26.131Z,28.94
2022-08-19T12:20:26.065Z,28.52
2022-08-19T12:25:26.028Z,28.76
2022-08-19T12:30:25.986Z,29.02
2022-08-19T12:35:25.915Z,29.36
2022-08-19T12:40:26.653Z,29.25
2022-08-19T12:45:25.821Z,29.29
2022-08-19T12:50:25.753Z,29.67
2022-08-19T12:55:25.715Z,29.36
2022-08-19T13:00:25.680Z,28.94
2022-08-19T13:05:25.599Z,28.44
2022-08-19T13:10:25.573Z,27.88
2022-08-19T13:15:25.513Z,28.78
2022-08-19T13:20:25.435Z,29.27
2022-08-19T13:25:25.397Z,29.72
2022-08-19T13:30:25.363Z,28.67
2022-08-19T13:35:25.284Z,28.26
2022-08-19T13:40:25.247Z,28.76
2022-08-19T13:45:25.269Z,29.53
2022-08-19T13:50:25.131Z,29.98
2022-08-19T13:55:25.380Z,29.79
2022-08-19T14:00:25.053Z,29.72
2022-08-19T14:05:25.024Z,29.41
2022-08-19T14:10:24.924Z,29.39
2022-08-19T14:15:25.089Z,29.51
2022-08-19T14:20:26.072Z,28.95
2022-08-19T14:25:24.767Z,28.91
2022-08-19T14:30:24.730Z,29.05
2022-08-19T14:35:24.679Z,29.51
2022-08-19T14:40:24.613Z,29.03
2022-08-19T14:45:24.597Z,29.72
2022-08-19T14:50:24.531Z,29.36
2022-08-19T14:55:24.453Z,29.13
2022-08-19T15:00:24.417Z,28.88
2022-08-19T15:05:24.369Z,28.46
2022-08-19T15:10:24.302Z,28.01
2022-08-19T15:15:24.255Z,27.77
2022-08-19T15:20:24.210Z,28.15
2022-08-19T15:25:24.162Z,28.93
2022-08-19T15:30:24.097Z,29.73
2022-08-19T15:35:24.184Z,29.34
2022-08-19T15:40:23.979Z,29.50
2022-08-19T15:45:23.936Z,28.90
2022-08-19T15:50:23.895Z,28.96
2022-08-19T15:55:32.532Z,28.53
2022-08-19T16:00:24.786Z,28.25
2022-08-19T16:05:23.723Z,27.76
2022-08-19T16:10:26.258Z,27.66
2022-08-19T16:15:23.608Z,27.66
2022-08-19T16:20:24.228Z,27.91
2022-08-19T16:25:30.545Z,28.18
2022-08-19T16:30:23.457Z,28.52
2022-08-19T16:35:23.405Z,28.25
2022-08-19T16:40:23.456Z,28.13
2022-08-19T16:45:23.287Z,27.46
2022-08-19T16:50:45.899Z,27.07
2022-08-19T16:55:24.188Z,26.92
2022-08-19T17:00:23.146Z,27.02
2022-08-19T17:05:23.081Z,27.15
2022-08-19T17:10:23.025Z,27.09
2022-08-19T17:15:22.980Z,27.04
2022-08-19T17:20:22.926Z,26.93
2022-08-19T17:25:22.874Z,26.91
2022-08-19T17:30:22.822Z,26.86
2022-08-19T17:35:24.331Z,26.80
2022-08-19T17:40:23.951Z,26.75
2022-08-19T17:45:22.668Z,26.74
2022-08-19T17:50:22.594Z,26.49
2022-08-19T17:55:22.556Z,26.52
2022-08-19T18:00:22.500Z,26.50
2022-08-19T18:05:22.447Z,26.42
2022-08-19T18:10:22.394Z,26.29
2022-08-19T18:15:22.339Z,26.06
2022-08-19T18:20:22.285Z,26.01
2022-08-19T18:25:22.230Z,25.88
2022-08-19T18:30:22.178Z,25.84
2022-08-19T18:35:22.139Z,25.78
2022-08-19T18:40:22.120Z,25.71
2022-08-19T18:45:22.018Z,25.70
2022-08-19T18:50:21.966Z,25.69
2022-08-19T18:55:21.913Z,25.46
2022-08-19T19:00:21.853Z,25.26
2022-08-19T19:05:21.798Z,25.18
2022-08-19T19:10:21.760Z,24.87
2022-08-19T19:15:21.682Z,24.73
2022-08-19T19:20:21.643Z,24.58
2022-08-19T19:25:21.591Z,24.62
2022-08-19T19:30:21.538Z,24.58
2022-08-19T19:35:21.478Z,24.50
2022-08-19T19:40:21.457Z,24.35
2022-08-19T19:45:21.373Z,24.11
2022-08-19T19:50:21.335Z,23.95
2022-08-19T19:55:21.255Z,23.79
2022-08-19T20:00:21.219Z,23.67
2022-08-19T20:05:21.516Z,23.76
2022-08-19T20:10:21.111Z,23.58
2022-08-19T20:15:21.051Z,23.45
2022-08-19T20:20:20.998Z,23.16
2022-08-19T20:25:22.073Z,23.05
2022-08-19T20:30:20.905Z,23.22
2022-08-19T20:35:20.829Z,23.27
2022-08-19T20:40:21.913Z,23.23
2022-08-19T20:45:32.762Z,23.30
2022-08-19T20:50:21.676Z,23.41
2022-08-19T20:55:20.623Z,23.24
2022-08-19T21:00:20.660Z,23.42
2022-08-19T21:05:20.519Z,23.36
2022-08-19T21:10:20.447Z,23.71
2022-08-19T21:15:20.406Z,23.87
2022-08-19T21:20:20.354Z,23.93
2022-08-19T21:25:20.297Z,23.87
2022-08-19T21:30:20.242Z,24.06
2022-08-19T21:35:20.198Z,24.01
2022-08-19T21:40:20.146Z,23.86
2022-08-19T21:45:20.070Z,23.79
2022-08-19T21:50:20.031Z,23.54
2022-08-19T21:55:19.975Z,23.55
2022-08-19T22:00:19.924Z,23.44
2022-08-19T22:05:19.873Z,23.18
2022-08-19T22:10:19.814Z,23.26
2022-08-19T22:15:19.757Z,23.29
2022-08-19T22:20:19.710Z,23.38
2022-08-19T22:25:31.651Z,23.48
2022-08-19T22:30:20.610Z,23.46
2022-08-19T22:35:19.531Z,23.40
2022-08-19T22:40:19.492Z,23.31
2022-08-19T22:45:19.433Z,23.31
2022-08-19T22:50:19.382Z,23.35
2022-08-19T22:55:19.325Z,23.30
2022-08-19T23:00:19.274Z,23.32
2022-08-19T23:05:21.987Z,23.23
2022-08-19T23:10:26.690Z,23.16
2022-08-19T23:15:20.230Z,23.27
2022-08-19T23:20:19.055Z,23.40
2022-08-19T23:25:19.006Z,23.18
